Leesburg, FL

12:36 PM EDT on July 04, 2015 (GMT -0400)
Cypress Creek | | Change Station
CLOSE
Current Station
Personal Weather Station
Location: Leesburg, FL
Elevation: 82 ft
Nearby Weather Stations

Elev 82 ft 28.77 °N, 81.88 °W | Updated 2 seconds ago

Clear
Clear
91.0 °F
Feels Like 95 °F
N
0.4
Wind Variable Wind from WSW
Gusts 2.5 mph

Today
High -- | Low -- °F
--% Chance of Precip.
Yesterday
High -- | Low -- °F
Precip. -- in
6:33 AM 8:29 PM
Waning Gibbous, 91% visible
Pressure 30.15 in
Visibility 10.0 miles
Clouds Clear
Heat Index 95 °F
Dew Point 68 °F
Humidity 47%
Rainfall 0.00 in
Snow Depth Not available.
UV 14 out of 12
Pollen 2.90 out of 12
Air Quality Not available.
Flu Activity Not available.
METAR KLEE 041553Z 16005KT 10SM CLR 31/23 A3015 RMK AO2 SLP208 T03060233

More Conditions Fewer Conditions

Pressure 30.15 in
Visibility 10.0 miles
Clouds Clear
Heat Index 95 °F
Dew Point 68 °F
Humidity 47%
Rainfall 0.00 in
Snow Depth Not available.
UV 14 out of 12
Pollen 2.90 out of 12
Air Quality Not available.
Flu Activity Not available.
METAR KLEE 041553Z 16005KT 10SM CLR 31/23 A3015 RMK AO2 SLP208 T03060233

More Conditions Fewer Conditions

Nowcast | as of 12:09 PM EDT on July 4, 2015

A greater coverage of lightning storms is expected today. The East Coast sea breeze has developed south of the cape and is pushing inland which will spark scattered lightning storms from Brevard County southward to Okeechobee County and inland portions of the Treasure Coast. The sea breeze is developing along the Volusia coast at this time and it too will drift slowly inland...eventually sparking scattered lightning storms this afternoon. A collision with the West Coast sea breeze is expected over the interior late this afternoon and early this evening...between 5 and 8 PM...roughly from interior Volusia County southward across Metro Orlando to Lake Kissimmee. Some of these storms will become quite strong and possibly severe...containing strong wind gusts...frequent lightning strikes and very heavy rainfall. Additional details...including graphics are available online at: http://www.Srh.NOAA.Gov/mlb/blog.Php

×

10-Day Weather Forecast

×

Almanac

Astronomy

Jul. 04, 2015 Rise Set
Actual Time
Civil Twilight
Nautical Twilight
Astronomical Twilight
Moon
Length of Visible Light
Length of Day
Tomorrow will be .
, % of the Moon is Illuminated

Today's Extremes

State Highs State Lows

Community

WunderPhotos

Upload Photos

1,834,998 photos uploaded!

WunderBlogs® & News

Nearby

Air Quality

  Air Quality AQ Index Pollutant
Not available.

Snow Depth

Station Depth Elevation

Earthquake Activity

City Distance Mag. Time & Date
Minimum magnitude displayed is 2.5.

Coastal Water Temperatures

Place Temperature

Stations

Nearby Weather Stations

Station Location Temp. Windchill Dew Point Humidity Wind Precip. Elev Updated Type